createdAt,value
2023-02-08T00:00:18.252Z,94288.00
2023-02-08T00:01:18.317Z,94288.00
2023-02-08T00:03:18.464Z,94288.00
2023-02-08T00:04:18.473Z,94288.00
2023-02-08T00:05:18.518Z,94288.00
2023-02-08T02:56:28.119Z,94269.00
2023-02-08T02:57:28.199Z,94269.00
2023-02-08T02:58:28.241Z,94271.00
2023-02-08T02:59:28.317Z,94273.00
2023-02-08T03:00:28.352Z,94271.00
2023-02-08T03:01:28.470Z,94269.00
2023-02-08T03:02:28.470Z,94269.00
2023-02-08T03:03:28.516Z,94271.00
2023-02-08T03:04:28.588Z,94273.00
2023-02-08T03:05:28.637Z,94271.00
2023-02-08T03:06:28.691Z,94271.00
2023-02-08T03:07:28.745Z,94271.00
2023-02-08T03:08:28.809Z,94271.00
2023-02-08T03:09:28.879Z,94271.00
2023-02-08T03:10:28.921Z,94267.00
2023-02-08T03:11:29.045Z,94267.00
2023-02-08T03:12:29.049Z,94265.00
2023-02-08T03:13:29.097Z,94265.00
2023-02-08T03:14:29.155Z,94263.00
2023-02-08T03:15:29.206Z,94259.00
2023-02-08T03:16:29.361Z,94261.00
2023-02-08T03:17:29.328Z,94257.00
2023-02-08T03:18:29.395Z,94259.00
2023-02-08T03:19:29.442Z,94261.00
2023-02-08T03:20:29.505Z,94261.00
2023-02-08T03:21:29.604Z,94257.00
2023-02-08T03:22:29.644Z,94257.00
2023-02-08T03:23:29.693Z,94257.00
2023-02-08T03:24:29.752Z,94259.00
2023-02-08T03:25:29.799Z,94259.00
2023-02-08T03:26:29.900Z,94259.00
2023-02-08T03:27:29.925Z,94259.00
2023-02-08T03:28:29.974Z,94259.00
2023-02-08T03:29:30.030Z,94259.00
2023-02-08T03:30:30.087Z,94257.00
2023-02-08T03:31:30.296Z,94259.00
2023-02-08T03:32:30.200Z,94259.00
2023-02-08T03:33:30.256Z,94259.00
2023-02-08T03:34:30.323Z,94257.00
2023-02-08T03:35:30.391Z,94259.00
2023-02-08T03:36:30.439Z,94259.00
2023-02-08T03:37:30.503Z,94259.00
2023-02-08T03:38:30.549Z,94257.00
2023-02-08T05:48:38.136Z,94253.00
2023-02-08T05:49:38.118Z,94257.00
2023-02-08T05:50:38.304Z,94261.00
2023-02-08T05:51:38.254Z,94257.00
2023-02-08T05:52:38.306Z,94257.00
2023-02-08T05:53:38.360Z,94259.00
2023-02-08T05:54:38.414Z,94259.00
2023-02-08T05:56:38.538Z,94257.00
2023-02-08T05:57:38.595Z,94259.00
2023-02-08T05:58:38.659Z,94257.00
2023-02-08T05:59:38.708Z,94257.00
2023-02-08T06:00:39.008Z,94261.00
2023-02-08T06:01:38.822Z,94257.00
2023-02-08T06:02:38.942Z,94259.00
2023-02-08T06:03:38.943Z,94257.00
2023-02-08T06:04:39.308Z,94261.00
2023-02-08T06:05:39.058Z,94257.00
2023-02-08T06:06:39.123Z,94261.00
2023-02-08T06:07:39.181Z,94263.00
2023-02-08T06:08:39.273Z,94263.00
2023-02-08T06:09:39.310Z,94259.00
2023-02-08T06:10:39.767Z,94263.00
2023-02-08T06:16:39.781Z,94271.00
2023-02-08T06:17:39.802Z,94269.00
2023-02-08T06:18:39.865Z,94269.00
2023-02-08T06:19:39.918Z,94273.00
2023-02-08T06:20:40.370Z,94273.00
2023-02-08T06:21:40.040Z,94273.00
2023-02-08T06:22:40.084Z,94275.00
2023-02-08T06:23:40.145Z,94269.00
2023-02-08T06:24:40.187Z,94271.00
2023-02-08T06:25:40.234Z,94271.00
2023-02-08T06:26:40.273Z,94269.00
2023-02-08T06:27:40.326Z,94265.00
2023-02-08T06:28:40.382Z,94267.00
2023-02-08T06:29:40.447Z,94271.00
2023-02-08T06:30:40.807Z,94271.00
2023-02-08T06:31:40.744Z,94269.00
2023-02-08T06:32:40.707Z,94269.00
2023-02-08T06:33:40.736Z,94269.00
2023-02-08T06:34:40.807Z,94269.00
2023-02-08T06:35:41.701Z,94269.00
2023-02-08T06:36:40.957Z,94267.00
2023-02-08T06:37:41.009Z,94269.00
2023-02-08T06:38:41.072Z,94273.00
2023-02-08T06:39:41.135Z,94271.00
2023-02-08T06:40:41.505Z,94269.00
2023-02-08T06:41:41.268Z,94267.00
2023-02-08T06:42:41.351Z,94271.00
2023-02-08T06:43:41.487Z,94273.00
2023-02-08T06:44:51.408Z,94273.00
2023-02-08T06:46:41.508Z,94271.00
2023-02-08T06:47:41.522Z,94271.00
2023-02-08T07:02:41.929Z,94278.00
2023-02-08T07:06:42.058Z,94276.00
2023-02-08T09:44:48.110Z,94196.00
2023-02-08T09:45:59.023Z,94196.00
2023-02-08T09:46:49.175Z,94196.00
2023-02-08T09:47:48.160Z,94196.00
2023-02-08T09:48:48.174Z,94196.00
2023-02-08T09:49:48.186Z,94196.00
2023-02-08T09:50:48.710Z,94196.00
2023-02-08T09:51:48.214Z,94194.00
2023-02-08T09:52:49.274Z,94192.00
2023-02-08T09:53:48.224Z,94192.00
2023-02-08T09:54:48.242Z,94194.00
2023-02-08T09:55:48.256Z,94194.00
2023-02-08T09:56:48.274Z,94196.00
2023-02-08T09:57:48.288Z,94190.00
2023-02-08T09:58:48.276Z,94190.00
2023-02-08T09:59:48.280Z,94188.00
2023-02-08T10:00:48.368Z,94188.00
2023-02-08T10:01:48.304Z,94190.00
2023-02-08T10:02:48.322Z,94186.00
2023-02-08T10:03:48.311Z,94190.00
2023-02-08T10:04:48.322Z,94190.00
2023-02-08T10:05:48.319Z,94184.00
2023-02-08T10:06:50.102Z,94180.00
2023-02-08T10:07:48.349Z,94182.00
2023-02-08T10:08:48.343Z,94180.00
2023-02-08T10:09:48.410Z,94177.00
2023-02-08T10:10:48.440Z,94173.00
2023-02-08T10:11:48.471Z,94173.00
2023-02-08T10:12:48.594Z,94169.00
2023-02-08T10:13:48.639Z,94167.00
2023-02-08T10:14:48.620Z,94167.00
2023-02-08T10:15:48.666Z,94161.00
2023-02-08T10:16:49.708Z,94157.00
2023-02-08T10:17:48.794Z,94157.00
2023-02-08T10:18:48.826Z,94155.00
2023-02-08T10:19:49.719Z,94159.00
2023-02-08T10:20:48.870Z,94159.00
2023-02-08T10:21:48.957Z,94157.00
2023-02-08T10:22:49.022Z,94157.00
2023-02-08T10:23:49.091Z,94151.00
2023-02-08T10:24:49.081Z,94149.00
2023-02-08T10:25:49.115Z,94155.00
2023-02-08T10:26:49.095Z,94149.00
2023-02-08T10:27:49.245Z,94145.00
2023-02-08T10:28:50.851Z,94145.00
2023-02-08T10:29:49.117Z,94141.00
2023-02-08T10:30:49.155Z,94139.00
2023-02-08T10:31:50.181Z,94135.00
2023-02-08T10:32:49.137Z,94133.00
2023-02-08T10:33:49.153Z,94129.00
2023-02-08T10:34:49.157Z,94118.00
2023-02-08T10:35:49.151Z,94116.00
2023-02-08T10:37:49.178Z,94112.00
2023-02-08T10:38:49.175Z,94110.00
2023-02-08T10:39:49.189Z,94110.00
2023-02-08T10:40:49.181Z,94108.00
2023-02-08T10:41:49.197Z,94104.00
2023-02-08T10:42:49.204Z,94100.00
2023-02-08T10:43:49.219Z,94098.00
2023-02-08T10:44:49.229Z,94098.00
2023-02-08T10:45:49.245Z,94094.00
2023-02-08T10:46:50.214Z,94094.00
2023-02-08T10:47:49.251Z,94086.00
2023-02-08T10:48:49.265Z,94081.00
2023-02-08T10:49:49.265Z,94082.00
2023-02-08T10:50:49.279Z,94081.00
2023-02-08T10:51:50.231Z,94077.00
2023-02-08T10:52:50.222Z,94079.00
2023-02-08T10:53:49.331Z,94075.00
2023-02-08T10:54:49.376Z,94079.00
2023-02-08T10:55:49.418Z,94077.00
2023-02-08T10:56:49.464Z,94075.00
2023-02-08T10:57:49.490Z,94073.00
2023-02-08T10:58:49.530Z,94075.00
2023-02-08T10:59:49.609Z,94069.00
2023-02-08T11:00:50.314Z,94075.00
2023-02-08T11:01:49.628Z,94073.00
2023-02-08T11:02:49.646Z,94079.00
2023-02-08T11:03:49.693Z,94077.00
2023-02-08T11:04:49.818Z,94073.00
2023-02-08T11:05:49.733Z,94069.00
2023-02-08T11:06:49.786Z,94077.00
2023-02-08T11:07:49.797Z,94071.00
2023-02-08T11:08:49.832Z,94073.00
2023-02-08T11:09:49.865Z,94065.00
2023-02-08T11:10:50.720Z,94067.00
2023-02-08T11:11:49.998Z,94067.00
2023-02-08T11:12:50.626Z,94061.00
2023-02-08T11:13:50.665Z,94065.00
2023-02-08T11:15:50.108Z,94061.00
2023-02-08T11:16:51.180Z,94063.00
2023-02-08T11:17:50.116Z,94061.00
2023-02-08T11:18:50.153Z,94059.00
2023-02-08T11:19:50.134Z,94051.00
2023-02-08T11:20:50.153Z,94053.00
2023-02-08T11:21:50.224Z,94055.00
2023-02-08T11:22:50.184Z,94053.00
2023-02-08T11:23:50.226Z,94047.00
2023-02-08T11:24:50.235Z,94047.00
2023-02-08T11:25:50.201Z,94047.00
2023-02-08T11:26:50.214Z,94041.00
2023-02-08T11:27:50.265Z,94039.00
2023-02-08T11:28:50.225Z,94039.00
2023-02-08T11:29:51.217Z,94037.00
2023-02-08T11:30:50.248Z,94039.00
2023-02-08T11:31:50.343Z,94034.00
2023-02-08T11:32:50.252Z,94034.00
2023-02-08T11:33:50.344Z,94032.00
2023-02-08T11:34:50.262Z,94030.00
2023-02-08T11:35:50.271Z,94028.00
2023-02-08T11:36:51.138Z,94030.00
2023-02-08T11:37:50.279Z,94026.00
2023-02-08T11:38:50.294Z,94030.00
2023-02-08T11:39:50.312Z,94026.00
2023-02-08T11:40:50.330Z,94024.00
2023-02-08T11:41:50.407Z,94022.00
2023-02-08T11:42:50.366Z,94018.00
2023-02-08T11:43:50.366Z,94016.00
2023-02-08T11:44:50.384Z,94014.00
2023-02-08T11:45:50.465Z,94016.00
2023-02-08T11:46:50.414Z,94018.00
2023-02-08T11:47:50.433Z,94020.00
2023-02-08T11:48:50.445Z,94014.00
2023-02-08T11:49:50.716Z,94012.00
2023-02-08T11:50:50.481Z,94012.00
2023-02-08T11:51:50.504Z,94012.00
2023-02-08T11:52:50.581Z,94012.00
2023-02-08T11:53:50.525Z,94008.00
2023-02-08T11:54:50.537Z,94010.00
2023-02-08T12:03:50.881Z,93992.00
2023-02-08T15:46:55.148Z,93840.00
2023-02-08T15:47:55.227Z,93841.00
2023-02-08T15:48:55.189Z,93843.00
2023-02-08T15:49:55.229Z,93843.00
2023-02-08T15:50:55.260Z,93843.00
2023-02-08T15:51:55.288Z,93843.00
2023-02-08T15:52:55.401Z,93843.00
2023-02-08T15:53:55.358Z,93845.00
2023-02-08T15:54:55.394Z,93845.00
2023-02-08T15:55:55.429Z,93841.00
2023-02-08T15:56:55.486Z,93845.00
2023-02-08T15:57:55.502Z,93845.00
2023-02-08T15:58:55.542Z,93845.00
2023-02-08T15:59:55.569Z,93849.00
2023-02-08T16:00:55.624Z,93847.00
2023-02-08T16:01:55.639Z,93849.00
2023-02-08T16:02:55.693Z,93847.00
2023-02-08T16:03:55.760Z,93845.00
2023-02-08T16:04:55.748Z,93841.00
2023-02-08T16:05:56.683Z,93845.00
2023-02-08T16:06:55.827Z,93847.00
2023-02-08T16:07:56.041Z,93847.00
2023-02-08T16:08:55.892Z,93849.00
2023-02-08T16:09:55.915Z,93851.00
2023-02-08T16:10:55.945Z,93855.00
2023-02-08T16:11:55.986Z,93855.00
2023-02-08T16:12:56.020Z,93851.00
2023-02-08T16:13:56.080Z,93847.00
2023-02-08T16:14:56.129Z,93851.00
2023-02-08T16:16:07.127Z,93851.00
2023-02-08T16:16:57.245Z,93851.00
2023-02-08T16:17:56.152Z,93853.00
2023-02-08T16:18:56.177Z,93855.00
2023-02-08T16:19:56.186Z,93859.00
2023-02-08T16:20:56.352Z,93861.00
2023-02-08T16:21:56.229Z,93863.00
2023-02-08T16:22:56.235Z,93859.00
2023-02-08T16:23:56.248Z,93859.00
2023-02-08T16:24:56.277Z,93873.00
2023-02-08T16:25:56.286Z,93863.00
2023-02-08T16:26:56.354Z,93871.00
2023-02-08T16:27:56.335Z,93875.00
2023-02-08T16:28:56.362Z,93875.00
2023-02-08T16:29:56.340Z,93875.00
2023-02-08T16:30:56.451Z,93873.00
2023-02-08T16:31:56.483Z,93879.00
2023-02-08T16:32:56.377Z,93879.00
2023-02-08T16:33:56.401Z,93881.00
2023-02-08T16:34:56.445Z,93881.00
2023-02-08T16:35:56.440Z,93885.00
2023-02-08T16:36:56.535Z,93886.00
2023-02-08T16:37:56.465Z,93886.00
2023-02-08T16:38:56.501Z,93892.00
2023-02-08T16:39:56.487Z,93894.00
2023-02-08T16:40:56.498Z,93892.00
2023-02-08T16:42:09.638Z,93894.00
2023-02-08T16:42:57.521Z,93898.00
2023-02-08T16:43:56.548Z,93900.00
2023-02-08T16:44:56.554Z,93904.00
2023-02-08T16:45:56.592Z,93904.00
2023-02-08T16:46:56.590Z,93906.00
2023-02-08T16:47:58.386Z,93908.00
2023-02-08T16:48:56.624Z,93908.00
2023-02-08T16:49:56.636Z,93908.00
2023-02-08T16:50:56.633Z,93912.00
2023-02-08T16:51:56.659Z,93914.00
2023-02-08T16:52:56.660Z,93914.00
2023-02-08T16:53:56.684Z,93918.00
2023-02-08T16:54:56.700Z,93918.00
2023-02-08T16:55:56.708Z,93920.00
2023-02-08T16:56:56.714Z,93918.00
2023-02-08T16:57:56.726Z,93922.00
2023-02-08T16:58:56.783Z,93922.00
2023-02-08T16:59:56.779Z,93926.00
2023-02-08T17:00:56.801Z,93928.00
2023-02-08T17:01:56.813Z,93928.00
2023-02-08T17:02:56.788Z,93930.00
2023-02-08T17:03:56.881Z,93935.00
2023-02-08T17:04:56.809Z,93932.00
2023-02-08T17:05:56.818Z,93933.00
2023-02-08T17:06:56.832Z,93937.00
2023-02-08T17:07:56.841Z,93933.00
2023-02-08T17:08:56.844Z,93933.00
2023-02-08T17:09:56.862Z,93935.00
2023-02-08T17:10:56.873Z,93937.00
2023-02-08T17:11:56.947Z,93937.00
2023-02-08T17:13:09.783Z,93939.00
2023-02-08T17:13:57.907Z,93939.00
2023-02-08T17:14:56.933Z,93941.00
2023-02-08T17:15:56.950Z,93941.00
2023-02-08T17:16:56.944Z,93943.00
2023-02-08T17:17:56.956Z,93945.00
2023-02-08T17:18:56.959Z,93945.00
2023-02-08T17:19:56.993Z,93945.00
2023-02-08T17:20:56.998Z,93947.00
2023-02-08T17:21:57.007Z,93947.00
2023-02-08T17:22:57.002Z,93947.00
2023-02-08T17:23:57.020Z,93947.00
2023-02-08T17:24:57.030Z,93949.00
2023-02-08T17:25:57.039Z,93951.00
2023-02-08T17:26:57.053Z,93949.00
2023-02-08T17:27:57.074Z,93949.00
2023-02-08T17:28:57.060Z,93953.00
2023-02-08T17:29:57.067Z,93953.00
2023-02-08T17:30:57.166Z,93953.00
2023-02-08T19:10:01.631Z,94008.00
2023-02-08T19:15:01.882Z,94018.00
2023-02-08T20:53:05.147Z,94067.00
2023-02-08T20:54:05.186Z,94065.00
2023-02-08T20:55:05.235Z,94067.00
2023-02-08T20:56:05.291Z,94067.00
2023-02-08T20:57:05.352Z,94073.00
2023-02-08T20:58:05.400Z,94073.00
2023-02-08T20:59:05.498Z,94073.00
2023-02-08T21:00:05.488Z,94075.00
2023-02-08T21:01:05.547Z,94075.00
2023-02-08T21:02:05.703Z,94079.00
2023-02-08T21:03:05.634Z,94079.00
2023-02-08T21:04:05.713Z,94079.00
2023-02-08T21:05:05.747Z,94082.00
2023-02-08T21:06:05.859Z,94084.00
2023-02-08T21:07:05.872Z,94084.00
2023-02-08T21:08:05.929Z,94086.00
2023-02-08T21:09:05.985Z,94086.00
2023-02-08T21:10:06.059Z,94090.00
2023-02-08T21:12:06.138Z,94086.00
2023-02-08T21:14:06.241Z,94084.00
2023-02-08T21:15:06.351Z,94084.00
2023-02-08T21:16:06.325Z,94081.00
2023-02-08T21:17:06.391Z,94082.00
2023-02-08T21:18:06.489Z,94082.00
2023-02-08T21:19:06.485Z,94084.00
2023-02-08T21:20:06.549Z,94079.00
2023-02-08T21:36:07.283Z,94073.00
